sensor_id;sensor_type;location;lat;lon;timestamp;temperature;humidity
12926;DHT22;6529;50.566;9.774;2024-03-23T00:55:33;7.80;99.90
12926;DHT22;6529;50.566;9.774;2024-03-23T00:57:59;7.90;99.90
12926;DHT22;6529;50.566;9.774;2024-03-23T01:00:25;8.00;99.90
12926;DHT22;6529;50.566;9.774;2024-03-23T01:02:50;8.00;99.90
12926;DHT22;6529;50.566;9.774;2024-03-23T01:05:16;8.00;99.90
12926;DHT22;6529;50.566;9.774;2024-03-23T01:07:42;7.90;99.90
12926;DHT22;6529;50.566;9.774;2024-03-23T01:10:07;7.80;99.90
12926;DHT22;6529;50.566;9.774;2024-03-23T01:12:33;7.90;99.90
12926;DHT22;6529;50.566;9.774;2024-03-23T01:14:58;7.90;99.90
12926;DHT22;6529;50.566;9.774;2024-03-23T01:17:24;7.90;99.90
12926;DHT22;6529;50.566;9.774;2024-03-23T01:19:50;7.80;99.90
12926;DHT22;6529;50.566;9.774;2024-03-23T01:22:15;7.90;99.90
12926;DHT22;6529;50.566;9.774;2024-03-23T01:24:41;7.80;99.90
12926;DHT22;6529;50.566;9.774;2024-03-23T01:27:06;7.80;99.90
12926;DHT22;6529;50.566;9.774;2024-03-23T01:29:32;7.70;99.90
12926;DHT22;6529;50.566;9.774;2024-03-23T01:31:57;7.70;99.90
12926;DHT22;6529;50.566;9.774;2024-03-23T01:34:23;7.70;99.90
12926;DHT22;6529;50.566;9.774;2024-03-23T01:36:50;7.60;99.90
12926;DHT22;6529;50.566;9.774;2024-03-23T01:39:16;7.60;99.90
12926;DHT22;6529;50.566;9.774;2024-03-23T01:41:42;7.50;99.90
12926;DHT22;6529;50.566;9.774;2024-03-23T01:44:08;7.40;99.90
12926;DHT22;6529;50.566;9.774;2024-03-23T01:46:37;7.40;99.90
12926;DHT22;6529;50.566;9.774;2024-03-23T01:49:06;7.40;99.90
12926;DHT22;6529;50.566;9.774;2024-03-23T01:51:33;7.20;99.90
12926;DHT22;6529;50.566;9.774;2024-03-23T01:54:01;7.20;99.90
12926;DHT22;6529;50.566;9.774;2024-03-23T01:56:32;7.30;99.90
12926;DHT22;6529;50.566;9.774;2024-03-23T01:58:59;7.20;99.90
12926;DHT22;6529;50.566;9.774;2024-03-23T02:01:24;7.10;99.90
12926;DHT22;6529;50.566;9.774;2024-03-23T02:03:50;7.10;99.90
12926;DHT22;6529;50.566;9.774;2024-03-23T02:06:16;7.00;99.90
12926;DHT22;6529;50.566;9.774;2024-03-23T02:08:41;7.00;99.90
12926;DHT22;6529;50.566;9.774;2024-03-23T02:11:07;7.00;99.90
12926;DHT22;6529;50.566;9.774;2024-03-23T02:13:33;7.10;99.90
12926;DHT22;6529;50.566;9.774;2024-03-23T02:15:59;7.20;99.90
12926;DHT22;6529;50.566;9.774;2024-03-23T02:18:24;7.20;99.90
12926;DHT22;6529;50.566;9.774;2024-03-23T02:20:50;7.20;99.90
12926;DHT22;6529;50.566;9.774;2024-03-23T02:23:16;7.20;99.90
12926;DHT22;6529;50.566;9.774;2024-03-23T02:25:41;7.20;99.90
12926;DHT22;6529;50.566;9.774;2024-03-23T02:28:07;7.20;99.90
12926;DHT22;6529;50.566;9.774;2024-03-23T02:30:33;7.30;99.90
12926;DHT22;6529;50.566;9.774;2024-03-23T02:32:58;7.40;99.90
12926;DHT22;6529;50.566;9.774;2024-03-23T02:35:24;7.40;99.90
12926;DHT22;6529;50.566;9.774;2024-03-23T02:37:49;7.50;99.90
12926;DHT22;6529;50.566;9.774;2024-03-23T02:40:16;7.50;99.90
12926;DHT22;6529;50.566;9.774;2024-03-23T02:42:42;7.50;99.90
12926;DHT22;6529;50.566;9.774;2024-03-23T02:45:08;7.50;99.90
12926;DHT22;6529;50.566;9.774;2024-03-23T02:47:33;7.40;99.90
12926;DHT22;6529;50.566;9.774;2024-03-23T02:49:59;7.40;99.90
12926;DHT22;6529;50.566;9.774;2024-03-23T02:52:24;7.40;99.90
12926;DHT22;6529;50.566;9.774;2024-03-23T02:54:50;7.50;99.90
12926;DHT22;6529;50.566;9.774;2024-03-23T02:57:16;7.40;99.90
12926;DHT22;6529;50.566;9.774;2024-03-23T02:59:41;7.30;99.90
12926;DHT22;6529;50.566;9.774;2024-03-23T03:02:07;7.20;99.90
12926;DHT22;6529;50.566;9.774;2024-03-23T03:04:33;7.20;99.90
12926;DHT22;6529;50.566;9.774;2024-03-23T03:06:58;7.20;99.90
12926;DHT22;6529;50.566;9.774;2024-03-23T03:09:24;7.40;99.90
12926;DHT22;6529;50.566;9.774;2024-03-23T03:11:50;7.30;99.90
12926;DHT22;6529;50.566;9.774;2024-03-23T03:14:16;7.30;99.90
12926;DHT22;6529;50.566;9.774;2024-03-23T03:16:41;7.30;99.90
12926;DHT22;6529;50.566;9.774;2024-03-23T03:19:07;7.30;99.90
12926;DHT22;6529;50.566;9.774;2024-03-23T03:21:32;7.20;99.90
12926;DHT22;6529;50.566;9.774;2024-03-23T03:23:58;7.30;99.90
12926;DHT22;6529;50.566;9.774;2024-03-23T03:26:24;7.30;99.90
12926;DHT22;6529;50.566;9.774;2024-03-23T03:28:50;7.40;99.90
12926;DHT22;6529;50.566;9.774;2024-03-23T03:31:16;7.30;99.90
12926;DHT22;6529;50.566;9.774;2024-03-23T03:33:42;7.30;99.90
12926;DHT22;6529;50.566;9.774;2024-03-23T03:36:08;7.10;99.90
12926;DHT22;6529;50.566;9.774;2024-03-23T03:38:34;7.10;99.90
12926;DHT22;6529;50.566;9.774;2024-03-23T03:41:03;7.00;99.90
12926;DHT22;6529;50.566;9.774;2024-03-23T03:43:29;7.00;99.90
12926;DHT22;6529;50.566;9.774;2024-03-23T03:45:56;7.00;99.90
12926;DHT22;6529;50.566;9.774;2024-03-23T03:48:22;7.00;99.90
12926;DHT22;6529;50.566;9.774;2024-03-23T03:50:48;7.00;99.90
12926;DHT22;6529;50.566;9.774;2024-03-23T03:53:14;7.00;99.90
12926;DHT22;6529;50.566;9.774;2024-03-23T03:55:40;7.00;99.90
12926;DHT22;6529;50.566;9.774;2024-03-23T03:58:05;7.00;99.90
12926;DHT22;6529;50.566;9.774;2024-03-23T04:00:31;7.10;99.90
12926;DHT22;6529;50.566;9.774;2024-03-23T04:02:57;7.00;99.90
12926;DHT22;6529;50.566;9.774;2024-03-23T04:05:23;7.10;99.90
12926;DHT22;6529;50.566;9.774;2024-03-23T04:07:48;7.10;99.90
12926;DHT22;6529;50.566;9.774;2024-03-23T04:10:14;7.10;99.90
12926;DHT22;6529;50.566;9.774;2024-03-23T04:12:40;7.10;99.90
12926;DHT22;6529;50.566;9.774;2024-03-23T04:15:07;7.10;99.90
12926;DHT22;6529;50.566;9.774;2024-03-23T04:17:32;7.10;99.90
12926;DHT22;6529;50.566;9.774;2024-03-23T04:20:01;7.10;99.90
12926;DHT22;6529;50.566;9.774;2024-03-23T04:22:27;7.20;99.90
12926;DHT22;6529;50.566;9.774;2024-03-23T04:24:56;7.30;99.90
12926;DHT22;6529;50.566;9.774;2024-03-23T04:27:22;7.20;99.90
12926;DHT22;6529;50.566;9.774;2024-03-23T04:29:49;7.30;99.90
12926;DHT22;6529;50.566;9.774;2024-03-23T04:32:16;7.40;99.90
12926;DHT22;6529;50.566;9.774;2024-03-23T04:34:42;7.40;99.90
12926;DHT22;6529;50.566;9.774;2024-03-23T04:37:09;7.40;99.90
12926;DHT22;6529;50.566;9.774;2024-03-23T04:39:36;7.40;99.90
12926;DHT22;6529;50.566;9.774;2024-03-23T04:42:02;7.30;99.90
12926;DHT22;6529;50.566;9.774;2024-03-23T04:44:28;7.30;99.90
12926;DHT22;6529;50.566;9.774;2024-03-23T04:46:54;7.30;99.90
12926;DHT22;6529;50.566;9.774;2024-03-23T04:49:19;7.30;99.90
12926;DHT22;6529;50.566;9.774;2024-03-23T04:51:45;7.30;99.90
12926;DHT22;6529;50.566;9.774;2024-03-23T04:54:14;7.20;99.90
12926;DHT22;6529;50.566;9.774;2024-03-23T04:56:40;7.20;99.90
12926;DHT22;6529;50.566;9.774;2024-03-23T04:59:06;7.20;99.90
12926;DHT22;6529;50.566;9.774;2024-03-23T05:01:32;7.10;99.90
12926;DHT22;6529;50.566;9.774;2024-03-23T05:03:58;7.10;99.90
12926;DHT22;6529;50.566;9.774;2024-03-23T05:06:24;7.20;99.90
12926;DHT22;6529;50.566;9.774;2024-03-23T05:08:51;7.20;99.90
12926;DHT22;6529;50.566;9.774;2024-03-23T05:11:16;7.10;99.90
12926;DHT22;6529;50.566;9.774;2024-03-23T05:13:42;7.10;99.90
12926;DHT22;6529;50.566;9.774;2024-03-23T05:16:08;7.10;99.90
12926;DHT22;6529;50.566;9.774;2024-03-23T05:18:34;7.20;99.90
12926;DHT22;6529;50.566;9.774;2024-03-23T05:20:59;7.20;99.90
12926;DHT22;6529;50.566;9.774;2024-03-23T05:23:26;7.20;99.90
12926;DHT22;6529;50.566;9.774;2024-03-23T05:25:51;7.20;99.90
12926;DHT22;6529;50.566;9.774;2024-03-23T05:28:18;7.20;99.90
12926;DHT22;6529;50.566;9.774;2024-03-23T05:30:43;7.30;99.90
12926;DHT22;6529;50.566;9.774;2024-03-23T05:33:09;7.40;99.90
12926;DHT22;6529;50.566;9.774;2024-03-23T05:35:35;7.40;99.90
12926;DHT22;6529;50.566;9.774;2024-03-23T05:38:00;7.50;99.90
12926;DHT22;6529;50.566;9.774;2024-03-23T05:40:26;7.50;99.90
12926;DHT22;6529;50.566;9.774;2024-03-23T05:42:52;7.60;99.90
12926;DHT22;6529;50.566;9.774;2024-03-23T05:45:21;7.60;99.90
12926;DHT22;6529;50.566;9.774;2024-03-23T05:47:48;7.60;99.90
12926;DHT22;6529;50.566;9.774;2024-03-23T05:50:13;7.50;99.90
12926;DHT22;6529;50.566;9.774;2024-03-23T05:52:39;7.40;99.90
12926;DHT22;6529;50.566;9.774;2024-03-23T05:55:06;7.40;99.90
12926;DHT22;6529;50.566;9.774;2024-03-23T05:57:31;7.40;99.90
12926;DHT22;6529;50.566;9.774;2024-03-23T05:59:57;7.40;99.90
12926;DHT22;6529;50.566;9.774;2024-03-23T06:02:24;7.30;99.90
12926;DHT22;6529;50.566;9.774;2024-03-23T06:04:49;7.20;99.90
12926;DHT22;6529;50.566;9.774;2024-03-23T06:07:15;7.10;99.90
12926;DHT22;6529;50.566;9.774;2024-03-23T06:09:41;7.10;99.90
12926;DHT22;6529;50.566;9.774;2024-03-23T06:12:07;7.10;99.90
12926;DHT22;6529;50.566;9.774;2024-03-23T06:14:34;7.10;99.90
12926;DHT22;6529;50.566;9.774;2024-03-23T06:17:00;6.90;99.90
12926;DHT22;6529;50.566;9.774;2024-03-23T06:19:27;6.70;99.90
12926;DHT22;6529;50.566;9.774;2024-03-23T06:21:56;6.60;99.90
12926;DHT22;6529;50.566;9.774;2024-03-23T06:24:22;6.40;99.90
12926;DHT22;6529;50.566;9.774;2024-03-23T06:26:47;6.20;99.90
12926;DHT22;6529;50.566;9.774;2024-03-23T06:29:13;6.00;99.90
12926;DHT22;6529;50.566;9.774;2024-03-23T06:31:38;6.00;99.90
12926;DHT22;6529;50.566;9.774;2024-03-23T06:34:04;5.90;99.90
12926;DHT22;6529;50.566;9.774;2024-03-23T06:36:30;5.90;99.90
12926;DHT22;6529;50.566;9.774;2024-03-23T06:38:56;5.90;99.90
12926;DHT22;6529;50.566;9.774;2024-03-23T06:41:22;5.80;99.90
12926;DHT22;6529;50.566;9.774;2024-03-23T06:43:48;5.80;99.90
12926;DHT22;6529;50.566;9.774;2024-03-23T06:46:13;5.80;99.90
12926;DHT22;6529;50.566;9.774;2024-03-23T06:48:39;5.80;99.90
12926;DHT22;6529;50.566;9.774;2024-03-23T06:51:04;5.80;99.90
12926;DHT22;6529;50.566;9.774;2024-03-23T06:53:32;5.70;99.90
12926;DHT22;6529;50.566;9.774;2024-03-23T06:55:57;5.80;99.90
12926;DHT22;6529;50.566;9.774;2024-03-23T06:58:24;5.70;99.90
12926;DHT22;6529;50.566;9.774;2024-03-23T07:00:50;5.70;99.90
12926;DHT22;6529;50.566;9.774;2024-03-23T07:03:20;5.60;99.90
12926;DHT22;6529;50.566;9.774;2024-03-23T07:05:46;5.60;99.90
12926;DHT22;6529;50.566;9.774;2024-03-23T07:08:12;5.50;99.90
12926;DHT22;6529;50.566;9.774;2024-03-23T07:10:41;5.40;99.90
12926;DHT22;6529;50.566;9.774;2024-03-23T07:13:06;5.40;99.90
12926;DHT22;6529;50.566;9.774;2024-03-23T07:15:33;5.30;99.90
12926;DHT22;6529;50.566;9.774;2024-03-23T07:17:58;5.20;99.90
12926;DHT22;6529;50.566;9.774;2024-03-23T07:20:24;5.30;99.90
12926;DHT22;6529;50.566;9.774;2024-03-23T07:22:49;5.20;99.90
12926;DHT22;6529;50.566;9.774;2024-03-23T07:25:15;5.20;99.90
12926;DHT22;6529;50.566;9.774;2024-03-23T07:27:40;5.20;99.90
12926;DHT22;6529;50.566;9.774;2024-03-23T07:30:07;5.20;99.90
12926;DHT22;6529;50.566;9.774;2024-03-23T07:32:33;5.30;99.90
12926;DHT22;6529;50.566;9.774;2024-03-23T07:34:58;5.30;99.90
12926;DHT22;6529;50.566;9.774;2024-03-23T07:37:24;5.30;99.90
12926;DHT22;6529;50.566;9.774;2024-03-23T07:39:51;5.50;99.90
12926;DHT22;6529;50.566;9.774;2024-03-23T07:42:16;5.50;99.90
12926;DHT22;6529;50.566;9.774;2024-03-23T07:44:42;5.40;99.90
12926;DHT22;6529;50.566;9.774;2024-03-23T07:47:07;5.40;99.90
12926;DHT22;6529;50.566;9.774;2024-03-23T07:49:33;5.40;99.90
12926;DHT22;6529;50.566;9.774;2024-03-23T07:51:58;5.40;99.90
12926;DHT22;6529;50.566;9.774;2024-03-23T07:54:24;5.40;99.90
12926;DHT22;6529;50.566;9.774;2024-03-23T07:56:49;5.50;99.90
12926;DHT22;6529;50.566;9.774;2024-03-23T07:59:15;5.40;99.90
12926;DHT22;6529;50.566;9.774;2024-03-23T08:01:40;5.50;99.90
12926;DHT22;6529;50.566;9.774;2024-03-23T08:04:06;5.80;99.90
12926;DHT22;6529;50.566;9.774;2024-03-23T08:06:31;5.80;99.90
12926;DHT22;6529;50.566;9.774;2024-03-23T08:08:58;5.80;99.90
12926;DHT22;6529;50.566;9.774;2024-03-23T08:11:27;6.00;99.90
12926;DHT22;6529;50.566;9.774;2024-03-23T08:13:53;6.00;99.90
12926;DHT22;6529;50.566;9.774;2024-03-23T08:16:18;6.00;99.90
12926;DHT22;6529;50.566;9.774;2024-03-23T08:18:44;5.80;99.90
12926;DHT22;6529;50.566;9.774;2024-03-23T08:21:10;5.90;99.90
12926;DHT22;6529;50.566;9.774;2024-03-23T08:23:36;5.80;99.90
12926;DHT22;6529;50.566;9.774;2024-03-23T08:26:08;5.70;99.90
12926;DHT22;6529;50.566;9.774;2024-03-23T08:28:35;5.70;99.90
12926;DHT22;6529;50.566;9.774;2024-03-23T08:31:03;5.70;99.90
12926;DHT22;6529;50.566;9.774;2024-03-23T08:33:29;5.80;99.90
12926;DHT22;6529;50.566;9.774;2024-03-23T08:35:55;5.70;99.90
12926;DHT22;6529;50.566;9.774;2024-03-23T08:38:22;5.70;99.90
12926;DHT22;6529;50.566;9.774;2024-03-23T08:40:47;5.60;99.90
12926;DHT22;6529;50.566;9.774;2024-03-23T08:43:13;5.70;99.90
12926;DHT22;6529;50.566;9.774;2024-03-23T08:45:38;5.70;99.90
12926;DHT22;6529;50.566;9.774;2024-03-23T08:48:04;5.70;99.90
12926;DHT22;6529;50.566;9.774;2024-03-23T08:50:30;5.80;99.90
12926;DHT22;6529;50.566;9.774;2024-03-23T08:52:55;5.70;99.90
12926;DHT22;6529;50.566;9.774;2024-03-23T08:55:21;5.70;99.90
12926;DHT22;6529;50.566;9.774;2024-03-23T08:57:46;5.60;99.90
12926;DHT22;6529;50.566;9.774;2024-03-23T09:00:12;5.70;99.90
12926;DHT22;6529;50.566;9.774;2024-03-23T09:02:38;5.80;99.90
12926;DHT22;6529;50.566;9.774;2024-03-23T09:05:04;5.70;99.90
12926;DHT22;6529;50.566;9.774;2024-03-23T09:07:31;5.90;99.90
12926;DHT22;6529;50.566;9.774;2024-03-23T09:09:56;5.90;99.90
12926;DHT22;6529;50.566;9.774;2024-03-23T09:12:22;5.90;99.90
12926;DHT22;6529;50.566;9.774;2024-03-23T09:14:48;5.90;99.90
12926;DHT22;6529;50.566;9.774;2024-03-23T09:17:14;5.80;99.90
12926;DHT22;6529;50.566;9.774;2024-03-23T09:19:40;5.80;99.90
12926;DHT22;6529;50.566;9.774;2024-03-23T09:22:06;5.80;99.90
12926;DHT22;6529;50.566;9.774;2024-03-23T09:24:31;5.80;99.90
12926;DHT22;6529;50.566;9.774;2024-03-23T09:26:57;5.80;99.90
12926;DHT22;6529;50.566;9.774;2024-03-23T09:29:23;5.80;99.90
12926;DHT22;6529;50.566;9.774;2024-03-23T09:31:48;5.70;99.90
12926;DHT22;6529;50.566;9.774;2024-03-23T09:34:14;5.80;99.90
12926;DHT22;6529;50.566;9.774;2024-03-23T09:36:40;5.80;99.90
12926;DHT22;6529;50.566;9.774;2024-03-23T09:39:07;5.90;99.90
12926;DHT22;6529;50.566;9.774;2024-03-23T09:41:35;5.80;99.90
12926;DHT22;6529;50.566;9.774;2024-03-23T09:44:00;5.90;99.90
12926;DHT22;6529;50.566;9.774;2024-03-23T09:46:26;5.90;99.90
12926;DHT22;6529;50.566;9.774;2024-03-23T09:48:54;5.90;99.90
12926;DHT22;6529;50.566;9.774;2024-03-23T09:51:20;5.90;99.90
12926;DHT22;6529;50.566;9.774;2024-03-23T09:53:46;6.00;99.90
12926;DHT22;6529;50.566;9.774;2024-03-23T09:56:11;6.00;99.90
12926;DHT22;6529;50.566;9.774;2024-03-23T09:58:37;6.10;99.90
12926;DHT22;6529;50.566;9.774;2024-03-23T10:01:03;6.00;99.90
12926;DHT22;6529;50.566;9.774;2024-03-23T10:03:28;6.10;99.90
12926;DHT22;6529;50.566;9.774;2024-03-23T10:06:03;6.10;99.90
12926;DHT22;6529;50.566;9.774;2024-03-23T10:08:30;6.10;99.90
12926;DHT22;6529;50.566;9.774;2024-03-23T10:10:56;6.20;99.90
12926;DHT22;6529;50.566;9.774;2024-03-23T10:13:26;6.20;98.70
12926;DHT22;6529;50.566;9.774;2024-03-23T10:15:56;6.20;99.90
12926;DHT22;6529;50.566;9.774;2024-03-23T10:18:23;6.10;1.00
12926;DHT22;6529;50.566;9.774;2024-03-23T10:23:36;6.10;1.00
12926;DHT22;6529;50.566;9.774;2024-03-23T10:31:34;6.10;1.00
12926;DHT22;6529;50.566;9.774;2024-03-23T10:34:02;6.10;1.00
12926;DHT22;6529;50.566;9.774;2024-03-23T10:36:29;6.00;1.00
12926;DHT22;6529;50.566;9.774;2024-03-23T10:38:55;6.00;1.00
12926;DHT22;6529;50.566;9.774;2024-03-23T10:41:21;5.90;1.00
12926;DHT22;6529;50.566;9.774;2024-03-23T10:43:48;5.90;17.30
12926;DHT22;6529;50.566;9.774;2024-03-23T10:46:15;5.90;1.00
12926;DHT22;6529;50.566;9.774;2024-03-23T10:48:41;6.00;1.00
12926;DHT22;6529;50.566;9.774;2024-03-23T10:51:08;6.00;1.00
12926;DHT22;6529;50.566;9.774;2024-03-23T10:53:35;6.50;1.00
12926;DHT22;6529;50.566;9.774;2024-03-23T10:56:02;7.00;1.00
12926;DHT22;6529;50.566;9.774;2024-03-23T10:58:32;7.60;1.00
12926;DHT22;6529;50.566;9.774;2024-03-23T11:01:00;7.80;1.00
12926;DHT22;6529;50.566;9.774;2024-03-23T11:06:02;8.60;1.00
12926;DHT22;6529;50.566;9.774;2024-03-23T11:08:39;8.70;1.00
12926;DHT22;6529;50.566;9.774;2024-03-23T11:11:18;8.20;99.90
12926;DHT22;6529;50.566;9.774;2024-03-23T11:13:47;7.90;1.00
12926;DHT22;6529;50.566;9.774;2024-03-23T11:16:31;8.00;1.00
12926;DHT22;6529;50.566;9.774;2024-03-23T11:22:01;7.90;99.90
12926;DHT22;6529;50.566;9.774;2024-03-23T11:24:28;7.90;5.70
12926;DHT22;6529;50.566;9.774;2024-03-23T11:26:53;7.90;99.90
12926;DHT22;6529;50.566;9.774;2024-03-23T11:29:19;7.80;26.40
12926;DHT22;6529;50.566;9.774;2024-03-23T11:31:51;7.90;1.00
12926;DHT22;6529;50.566;9.774;2024-03-23T11:34:18;7.80;99.90
12926;DHT22;6529;50.566;9.774;2024-03-23T11:36:44;8.00;1.00
12926;DHT22;6529;50.566;9.774;2024-03-23T11:39:20;8.10;1.00
12926;DHT22;6529;50.566;9.774;2024-03-23T11:41:52;8.30;1.00
12926;DHT22;6529;50.566;9.774;2024-03-23T11:44:23;8.60;1.00
12926;DHT22;6529;50.566;9.774;2024-03-23T11:46:50;9.00;1.00
12926;DHT22;6529;50.566;9.774;2024-03-23T11:49:22;9.30;5.50
12926;DHT22;6529;50.566;9.774;2024-03-23T11:51:48;9.00;1.00
12926;DHT22;6529;50.566;9.774;2024-03-23T11:54:14;9.10;85.00
12926;DHT22;6529;50.566;9.774;2024-03-23T11:56:40;8.90;1.00
12926;DHT22;6529;50.566;9.774;2024-03-23T11:59:06;8.60;1.00
12926;DHT22;6529;50.566;9.774;2024-03-23T12:01:32;8.00;1.00
12926;DHT22;6529;50.566;9.774;2024-03-23T12:03:58;7.10;33.80
12926;DHT22;6529;50.566;9.774;2024-03-23T12:06:23;6.50;99.90
12926;DHT22;6529;50.566;9.774;2024-03-23T12:08:49;6.10;1.00
12926;DHT22;6529;50.566;9.774;2024-03-23T12:11:18;6.20;1.00
12926;DHT22;6529;50.566;9.774;2024-03-23T12:13:45;6.40;99.90
12926;DHT22;6529;50.566;9.774;2024-03-23T12:16:19;7.00;99.90
12926;DHT22;6529;50.566;9.774;2024-03-23T12:18:49;7.70;1.00
12926;DHT22;6529;50.566;9.774;2024-03-23T12:21:16;7.90;1.00
12926;DHT22;6529;50.566;9.774;2024-03-23T12:23:43;7.80;1.00
12926;DHT22;6529;50.566;9.774;2024-03-23T12:26:10;7.80;1.00
12926;DHT22;6529;50.566;9.774;2024-03-23T12:28:37;8.20;1.00
12926;DHT22;6529;50.566;9.774;2024-03-23T12:31:03;8.30;99.90
12926;DHT22;6529;50.566;9.774;2024-03-23T12:33:28;8.30;1.00
12926;DHT22;6529;50.566;9.774;2024-03-23T12:35:54;8.10;1.00
12926;DHT22;6529;50.566;9.774;2024-03-23T12:38:19;7.80;99.90
12926;DHT22;6529;50.566;9.774;2024-03-23T12:40:54;7.50;35.50
12926;DHT22;6529;50.566;9.774;2024-03-23T12:43:20;7.30;99.90
12926;DHT22;6529;50.566;9.774;2024-03-23T12:45:49;7.00;99.90
12926;DHT22;6529;50.566;9.774;2024-03-23T12:48:15;6.90;1.00
12926;DHT22;6529;50.566;9.774;2024-03-23T12:50:41;6.80;1.00
12926;DHT22;6529;50.566;9.774;2024-03-23T12:53:07;6.70;1.00
12926;DHT22;6529;50.566;9.774;2024-03-23T12:55:34;6.70;1.00
12926;DHT22;6529;50.566;9.774;2024-03-23T12:58:00;6.80;1.00
12926;DHT22;6529;50.566;9.774;2024-03-23T13:00:26;6.80;14.40
12926;DHT22;6529;50.566;9.774;2024-03-23T13:02:51;6.90;99.90
12926;DHT22;6529;50.566;9.774;2024-03-23T13:05:17;7.00;1.00
12926;DHT22;6529;50.566;9.774;2024-03-23T13:07:42;7.00;99.90
12926;DHT22;6529;50.566;9.774;2024-03-23T13:10:08;7.10;81.30
12926;DHT22;6529;50.566;9.774;2024-03-23T13:12:34;7.00;99.60
12926;DHT22;6529;50.566;9.774;2024-03-23T13:15:00;7.10;1.00
12926;DHT22;6529;50.566;9.774;2024-03-23T13:17:26;7.00;1.00
12926;DHT22;6529;50.566;9.774;2024-03-23T13:19:53;7.10;99.90
12926;DHT22;6529;50.566;9.774;2024-03-23T13:22:18;7.20;99.90
12926;DHT22;6529;50.566;9.774;2024-03-23T13:24:44;7.30;99.90
12926;DHT22;6529;50.566;9.774;2024-03-23T13:27:10;7.30;99.90
12926;DHT22;6529;50.566;9.774;2024-03-23T13:29:36;7.40;1.00
12926;DHT22;6529;50.566;9.774;2024-03-23T13:32:03;7.30;99.90
12926;DHT22;6529;50.566;9.774;2024-03-23T13:34:29;7.30;1.00
12926;DHT22;6529;50.566;9.774;2024-03-23T13:36:55;7.20;1.00
12926;DHT22;6529;50.566;9.774;2024-03-23T13:39:24;7.10;99.90
12926;DHT22;6529;50.566;9.774;2024-03-23T13:41:50;7.10;1.00
12926;DHT22;6529;50.566;9.774;2024-03-23T13:44:16;7.00;1.00
12926;DHT22;6529;50.566;9.774;2024-03-23T13:46:42;6.90;99.90
12926;DHT22;6529;50.566;9.774;2024-03-23T13:49:25;6.90;1.00
12926;DHT22;6529;50.566;9.774;2024-03-23T13:51:52;6.80;1.00
12926;DHT22;6529;50.566;9.774;2024-03-23T13:54:18;6.70;1.00
12926;DHT22;6529;50.566;9.774;2024-03-23T13:56:43;6.40;1.00
12926;DHT22;6529;50.566;9.774;2024-03-23T13:59:09;6.20;2.10
12926;DHT22;6529;50.566;9.774;2024-03-23T14:01:35;6.10;1.00
12926;DHT22;6529;50.566;9.774;2024-03-23T14:04:01;6.00;1.00
12926;DHT22;6529;50.566;9.774;2024-03-23T14:06:26;5.90;1.00
12926;DHT22;6529;50.566;9.774;2024-03-23T14:08:52;5.90;72.00
12926;DHT22;6529;50.566;9.774;2024-03-23T14:11:18;5.90;13.70
12926;DHT22;6529;50.566;9.774;2024-03-23T14:13:44;5.90;1.00
12926;DHT22;6529;50.566;9.774;2024-03-23T14:16:10;5.90;99.90
12926;DHT22;6529;50.566;9.774;2024-03-23T14:18:35;5.80;99.90
12926;DHT22;6529;50.566;9.774;2024-03-23T14:21:01;5.80;1.00
12926;DHT22;6529;50.566;9.774;2024-03-23T14:23:29;5.80;99.90
12926;DHT22;6529;50.566;9.774;2024-03-23T14:25:55;5.70;70.30
12926;DHT22;6529;50.566;9.774;2024-03-23T14:28:25;5.70;99.90
12926;DHT22;6529;50.566;9.774;2024-03-23T14:30:51;5.50;99.50
12926;DHT22;6529;50.566;9.774;2024-03-23T14:33:18;5.60;99.90
12926;DHT22;6529;50.566;9.774;2024-03-23T14:35:56;5.60;99.90
12926;DHT22;6529;50.566;9.774;2024-03-23T14:38:24;5.50;99.90
12926;DHT22;6529;50.566;9.774;2024-03-23T14:40:50;5.50;99.90
12926;DHT22;6529;50.566;9.774;2024-03-23T14:43:18;5.50;99.90
12926;DHT22;6529;50.566;9.774;2024-03-23T14:46:09;5.50;99.90
12926;DHT22;6529;50.566;9.774;2024-03-23T14:48:35;5.40;99.90
12926;DHT22;6529;50.566;9.774;2024-03-23T14:51:01;5.30;59.20
12926;DHT22;6529;50.566;9.774;2024-03-23T14:53:30;5.20;71.00
12926;DHT22;6529;50.566;9.774;2024-03-23T14:56:02;5.20;99.90
12926;DHT22;6529;50.566;9.774;2024-03-23T14:58:29;5.30;99.90
12926;DHT22;6529;50.566;9.774;2024-03-23T15:01:08;5.40;99.90
12926;DHT22;6529;50.566;9.774;2024-03-23T15:03:40;5.30;1.60
12926;DHT22;6529;50.566;9.774;2024-03-23T15:06:08;5.40;99.90
12926;DHT22;6529;50.566;9.774;2024-03-23T15:08:36;5.50;99.90
12926;DHT22;6529;50.566;9.774;2024-03-23T15:11:03;5.70;99.90
12926;DHT22;6529;50.566;9.774;2024-03-23T15:13:34;5.90;1.00
12926;DHT22;6529;50.566;9.774;2024-03-23T15:16:00;5.90;1.00
12926;DHT22;6529;50.566;9.774;2024-03-23T15:18:25;5.90;40.70
12926;DHT22;6529;50.566;9.774;2024-03-23T15:20:55;5.80;1.00
12926;DHT22;6529;50.566;9.774;2024-03-23T15:23:21;5.80;45.20
12926;DHT22;6529;50.566;9.774;2024-03-23T15:26:13;5.70;4.70
12926;DHT22;6529;50.566;9.774;2024-03-23T15:28:39;5.60;77.30
12926;DHT22;6529;50.566;9.774;2024-03-23T15:31:23;5.60;40.90
12926;DHT22;6529;50.566;9.774;2024-03-23T15:33:49;5.50;64.30
12926;DHT22;6529;50.566;9.774;2024-03-23T15:36:15;5.60;99.90
12926;DHT22;6529;50.566;9.774;2024-03-23T15:38:41;5.50;99.90
12926;DHT22;6529;50.566;9.774;2024-03-23T15:41:06;5.60;99.90
12926;DHT22;6529;50.566;9.774;2024-03-23T15:43:33;5.60;99.90
12926;DHT22;6529;50.566;9.774;2024-03-23T15:46:00;5.60;99.90
12926;DHT22;6529;50.566;9.774;2024-03-23T15:48:30;5.60;99.90
12926;DHT22;6529;50.566;9.774;2024-03-23T15:51:01;5.50;99.90
12926;DHT22;6529;50.566;9.774;2024-03-23T15:53:27;5.40;99.90
12926;DHT22;6529;50.566;9.774;2024-03-23T15:58:23;5.50;99.90
12926;DHT22;6529;50.566;9.774;2024-03-23T16:00:59;5.50;99.90
12926;DHT22;6529;50.566;9.774;2024-03-23T16:03:25;5.50;99.90
12926;DHT22;6529;50.566;9.774;2024-03-23T16:05:58;5.60;99.90
12926;DHT22;6529;50.566;9.774;2024-03-23T16:08:24;5.70;99.90
12926;DHT22;6529;50.566;9.774;2024-03-23T16:10:50;5.70;99.90
12926;DHT22;6529;50.566;9.774;2024-03-23T16:13:16;5.70;99.90
12926;DHT22;6529;50.566;9.774;2024-03-23T16:15:42;5.60;99.90
12926;DHT22;6529;50.566;9.774;2024-03-23T16:18:07;5.40;99.90
12926;DHT22;6529;50.566;9.774;2024-03-23T16:20:33;5.40;99.90
12926;DHT22;6529;50.566;9.774;2024-03-23T16:23:03;5.40;99.90
12926;DHT22;6529;50.566;9.774;2024-03-23T16:25:29;5.30;99.90
12926;DHT22;6529;50.566;9.774;2024-03-23T16:27:55;5.30;99.90
12926;DHT22;6529;50.566;9.774;2024-03-23T16:30:21;5.30;99.90
12926;DHT22;6529;50.566;9.774;2024-03-23T16:32:47;5.20;99.90
12926;DHT22;6529;50.566;9.774;2024-03-23T16:35:13;5.10;99.90
12926;DHT22;6529;50.566;9.774;2024-03-23T16:37:39;5.00;99.90
12926;DHT22;6529;50.566;9.774;2024-03-23T16:40:05;4.90;99.90
12926;DHT22;6529;50.566;9.774;2024-03-23T16:42:32;4.90;99.90
12926;DHT22;6529;50.566;9.774;2024-03-23T16:44:58;4.70;99.90
12926;DHT22;6529;50.566;9.774;2024-03-23T16:47:23;4.80;99.90
12926;DHT22;6529;50.566;9.774;2024-03-23T16:49:49;4.70;99.90
12926;DHT22;6529;50.566;9.774;2024-03-23T16:52:15;4.80;99.90
12926;DHT22;6529;50.566;9.774;2024-03-23T16:54:41;4.80;99.90
12926;DHT22;6529;50.566;9.774;2024-03-23T16:57:07;4.70;99.90
12926;DHT22;6529;50.566;9.774;2024-03-23T16:59:32;4.80;99.90
12926;DHT22;6529;50.566;9.774;2024-03-23T17:01:58;4.80;99.90
12926;DHT22;6529;50.566;9.774;2024-03-23T17:04:24;4.80;99.90
12926;DHT22;6529;50.566;9.774;2024-03-23T17:06:50;4.80;99.90
12926;DHT22;6529;50.566;9.774;2024-03-23T17:09:15;4.80;99.90
12926;DHT22;6529;50.566;9.774;2024-03-23T17:11:42;4.70;99.90